sensor_id;sensor_type;location;lat;lon;timestamp;P1;P2;P0
44933;PMS3003;30667;43.614;1.442;2023-02-15T00:00:25;14.00;12.00;7.00
44933;PMS3003;30667;43.614;1.442;2023-02-15T00:02:51;14.50;14.00;7.00
44933;PMS3003;30667;43.614;1.442;2023-02-15T00:05:16;11.00;11.00;7.00
44933;PMS3003;30667;43.614;1.442;2023-02-15T00:07:42;15.00;11.75;7.25
44933;PMS3003;30667;43.614;1.442;2023-02-15T00:10:07;12.75;12.75;8.75
44933;PMS3003;30667;43.614;1.442;2023-02-15T00:12:33;12.40;12.00;6.60
44933;PMS3003;30667;43.614;1.442;2023-02-15T00:14:59;13.00;12.50;6.50
44933;PMS3003;30667;43.614;1.442;2023-02-15T00:17:26;11.00;11.00;6.00
44933;PMS3003;30667;43.614;1.442;2023-02-15T00:19:52;12.00;12.00;7.00
44933;PMS3003;30667;43.614;1.442;2023-02-15T00:22:17;13.00;12.00;6.00
44933;PMS3003;30667;43.614;1.442;2023-02-15T00:24:43;10.00;10.00;6.00
44933;PMS3003;30667;43.614;1.442;2023-02-15T00:27:08;18.75;15.50;7.50
44933;PMS3003;30667;43.614;1.442;2023-02-15T00:29:34;15.00;14.00;6.00
44933;PMS3003;30667;43.614;1.442;2023-02-15T00:31:59;11.00;11.00;6.00
44933;PMS3003;30667;43.614;1.442;2023-02-15T00:34:25;14.00;12.75;8.00
44933;PMS3003;30667;43.614;1.442;2023-02-15T00:36:51;15.60;13.60;8.80
44933;PMS3003;30667;43.614;1.442;2023-02-15T00:39:17;11.00;11.00;5.00
44933;PMS3003;30667;43.614;1.442;2023-02-15T00:41:43;14.00;12.40;6.80
44933;PMS3003;30667;43.614;1.442;2023-02-15T00:44:09;17.20;13.60;8.80
44933;PMS3003;30667;43.614;1.442;2023-02-15T00:46:35;11.75;11.75;7.00
44933;PMS3003;30667;43.614;1.442;2023-02-15T00:49:01;15.00;12.40;7.00
44933;PMS3003;30667;43.614;1.442;2023-02-15T00:51:27;14.20;12.00;7.20
44933;PMS3003;30667;43.614;1.442;2023-02-15T00:53:53;11.25;11.25;7.00
44933;PMS3003;30667;43.614;1.442;2023-02-15T00:56:18;14.50;13.25;6.25
44933;PMS3003;30667;43.614;1.442;2023-02-15T00:58:44;14.40;12.20;7.00
44933;PMS3003;30667;43.614;1.442;2023-02-15T01:01:11;17.25;15.50;7.25
44933;PMS3003;30667;43.614;1.442;2023-02-15T01:03:41;10.80;10.80;6.00
44933;PMS3003;30667;43.614;1.442;2023-02-15T01:06:07;15.00;13.00;7.80
44933;PMS3003;30667;43.614;1.442;2023-02-15T01:08:32;14.00;12.20;7.00
44933;PMS3003;30667;43.614;1.442;2023-02-15T01:11:03;14.00;14.00;7.00
44933;PMS3003;30667;43.614;1.442;2023-02-15T01:13:33;13.20;12.60;6.00
44933;PMS3003;30667;43.614;1.442;2023-02-15T01:15:59;14.20;11.40;6.40
44933;PMS3003;30667;43.614;1.442;2023-02-15T01:18:25;12.80;11.40;6.00
44933;PMS3003;30667;43.614;1.442;2023-02-15T01:20:51;20.60;18.80;10.40
44933;PMS3003;30667;43.614;1.442;2023-02-15T01:23:17;15.75;14.75;7.00
44933;PMS3003;30667;43.614;1.442;2023-02-15T01:25:43;14.75;13.50;7.00
44933;PMS3003;30667;43.614;1.442;2023-02-15T01:28:08;14.00;12.25;6.25
44933;PMS3003;30667;43.614;1.442;2023-02-15T01:30:34;15.00;11.75;7.00
44933;PMS3003;30667;43.614;1.442;2023-02-15T01:32:59;11.00;11.00;6.00
44933;PMS3003;30667;43.614;1.442;2023-02-15T01:35:28;15.00;14.00;8.80
44933;PMS3003;30667;43.614;1.442;2023-02-15T01:37:54;14.50;13.50;7.00
44933;PMS3003;30667;43.614;1.442;2023-02-15T01:40:21;14.40;14.40;8.00
44933;PMS3003;30667;43.614;1.442;2023-02-15T01:42:50;14.60;13.00;6.80
44933;PMS3003;30667;43.614;1.442;2023-02-15T01:45:27;15.20;14.20;7.60
44933;PMS3003;30667;43.614;1.442;2023-02-15T01:48:02;18.40;16.00;7.60
44933;PMS3003;30667;43.614;1.442;2023-02-15T01:50:34;16.20;14.00;7.60
44933;PMS3003;30667;43.614;1.442;2023-02-15T01:55:52;14.80;14.00;7.00
44933;PMS3003;30667;43.614;1.442;2023-02-15T01:58:26;14.60;13.60;7.60
44933;PMS3003;30667;43.614;1.442;2023-02-15T02:00:54;14.40;13.20;8.20
44933;PMS3003;30667;43.614;1.442;2023-02-15T02:03:24;17.20;16.60;7.00
44933;PMS3003;30667;43.614;1.442;2023-02-15T02:06:04;14.40;13.20;8.00
44933;PMS3003;30667;43.614;1.442;2023-02-15T02:08:30;14.50;14.00;8.25
44933;PMS3003;30667;43.614;1.442;2023-02-15T02:10:56;14.00;14.00;9.00
44933;PMS3003;30667;43.614;1.442;2023-02-15T02:13:21;14.25;14.00;7.75
44933;PMS3003;30667;43.614;1.442;2023-02-15T02:15:54;13.75;13.25;7.00
44933;PMS3003;30667;43.614;1.442;2023-02-15T02:21:15;14.60;13.40;7.20
44933;PMS3003;30667;43.614;1.442;2023-02-15T02:38:37;16.40;15.00;7.80
44933;PMS3003;30667;43.614;1.442;2023-02-15T02:49:35;17.20;16.60;9.20
44933;PMS3003;30667;43.614;1.442;2023-02-15T02:52:03;16.40;14.20;7.60
44933;PMS3003;30667;43.614;1.442;2023-02-15T02:54:32;16.00;15.20;7.80
44933;PMS3003;30667;43.614;1.442;2023-02-15T02:57:00;14.00;14.00;8.60
44933;PMS3003;30667;43.614;1.442;2023-02-15T02:59:33;14.80;14.80;9.40
44933;PMS3003;30667;43.614;1.442;2023-02-15T03:02:05;15.60;14.00;7.60
44933;PMS3003;30667;43.614;1.442;2023-02-15T03:04:38;15.80;15.60;8.80
44933;PMS3003;30667;43.614;1.442;2023-02-15T03:07:10;15.20;14.40;9.20
44933;PMS3003;30667;43.614;1.442;2023-02-15T03:09:43;15.80;15.80;9.00
44933;PMS3003;30667;43.614;1.442;2023-02-15T03:12:13;14.20;13.00;7.20
44933;PMS3003;30667;43.614;1.442;2023-02-15T03:14:50;14.40;14.00;7.80
44933;PMS3003;30667;43.614;1.442;2023-02-15T03:17:19;17.40;16.20;8.20
44933;PMS3003;30667;43.614;1.442;2023-02-15T03:19:48;15.80;15.60;7.80
44933;PMS3003;30667;43.614;1.442;2023-02-15T03:22:24;15.00;14.20;7.60
44933;PMS3003;30667;43.614;1.442;2023-02-15T03:27:28;15.20;14.40;7.20
44933;PMS3003;30667;43.614;1.442;2023-02-15T03:29:58;17.40;16.80;9.00
44933;PMS3003;30667;43.614;1.442;2023-02-15T03:32:25;16.60;16.00;10.00
44933;PMS3003;30667;43.614;1.442;2023-02-15T03:34:54;14.20;13.20;6.80
44933;PMS3003;30667;43.614;1.442;2023-02-15T03:37:28;17.00;14.40;8.20
44933;PMS3003;30667;43.614;1.442;2023-02-15T03:40:11;19.40;17.80;10.20
44933;PMS3003;30667;43.614;1.442;2023-02-15T03:45:56;17.60;16.80;9.40
44933;PMS3003;30667;43.614;1.442;2023-02-15T03:48:33;16.60;15.40;9.40
44933;PMS3003;30667;43.614;1.442;2023-02-15T03:51:19;17.40;16.00;9.00
44933;PMS3003;30667;43.614;1.442;2023-02-15T03:54:01;19.00;15.60;9.80
44933;PMS3003;30667;43.614;1.442;2023-02-15T03:56:27;17.00;17.00;9.80
44933;PMS3003;30667;43.614;1.442;2023-02-15T03:58:53;20.50;19.75;13.00
44933;PMS3003;30667;43.614;1.442;2023-02-15T04:01:42;24.60;21.20;12.60
44933;PMS3003;30667;43.614;1.442;2023-02-15T04:07:02;24.40;23.00;14.00
44933;PMS3003;30667;43.614;1.442;2023-02-15T04:09:29;22.40;19.80;12.40
44933;PMS3003;30667;43.614;1.442;2023-02-15T04:12:13;25.40;24.00;13.60
44933;PMS3003;30667;43.614;1.442;2023-02-15T04:14:39;23.50;21.75;13.00
44933;PMS3003;30667;43.614;1.442;2023-02-15T04:17:23;25.60;24.60;15.60
44933;PMS3003;30667;43.614;1.442;2023-02-15T04:19:48;23.50;23.00;15.00
44933;PMS3003;30667;43.614;1.442;2023-02-15T04:22:32;29.20;23.60;15.20
44933;PMS3003;30667;43.614;1.442;2023-02-15T04:25:16;26.00;23.00;14.60
44933;PMS3003;30667;43.614;1.442;2023-02-15T04:27:47;22.20;20.80;13.20
44933;PMS3003;30667;43.614;1.442;2023-02-15T04:30:17;38.00;36.20;24.40
44933;PMS3003;30667;43.614;1.442;2023-02-15T04:32:45;41.60;34.80;25.20
44933;PMS3003;30667;43.614;1.442;2023-02-15T04:35:11;40.60;38.60;26.00
44933;PMS3003;30667;43.614;1.442;2023-02-15T04:37:38;37.40;34.20;21.00
44933;PMS3003;30667;43.614;1.442;2023-02-15T04:40:04;29.00;25.80;16.40
44933;PMS3003;30667;43.614;1.442;2023-02-15T04:42:30;25.80;22.60;14.20
44933;PMS3003;30667;43.614;1.442;2023-02-15T04:44:56;50.67;44.33;30.00
44933;PMS3003;30667;43.614;1.442;2023-02-15T04:47:21;33.75;30.00;20.00
44933;PMS3003;30667;43.614;1.442;2023-02-15T04:49:47;26.60;22.60;15.00
44933;PMS3003;30667;43.614;1.442;2023-02-15T04:52:12;23.50;23.00;15.25
44933;PMS3003;30667;43.614;1.442;2023-02-15T04:54:38;29.50;26.00;15.00
44933;PMS3003;30667;43.614;1.442;2023-02-15T04:57:04;26.00;23.00;14.50
44933;PMS3003;30667;43.614;1.442;2023-02-15T04:59:30;24.40;22.80;14.40
44933;PMS3003;30667;43.614;1.442;2023-02-15T05:01:56;26.00;22.25;14.75
44933;PMS3003;30667;43.614;1.442;2023-02-15T05:04:21;25.00;22.00;13.00
44933;PMS3003;30667;43.614;1.442;2023-02-15T05:06:47;26.00;23.25;13.75
44933;PMS3003;30667;43.614;1.442;2023-02-15T05:09:12;26.00;23.50;15.00
44933;PMS3003;30667;43.614;1.442;2023-02-15T05:11:38;24.40;22.20;14.20
44933;PMS3003;30667;43.614;1.442;2023-02-15T05:14:04;24.50;22.50;14.50
44933;PMS3003;30667;43.614;1.442;2023-02-15T05:16:29;24.75;21.75;15.00
44933;PMS3003;30667;43.614;1.442;2023-02-15T05:18:55;22.50;22.00;14.25
44933;PMS3003;30667;43.614;1.442;2023-02-15T05:21:20;26.25;24.75;16.00
44933;PMS3003;30667;43.614;1.442;2023-02-15T05:23:46;23.80;21.60;13.00
44933;PMS3003;30667;43.614;1.442;2023-02-15T05:26:12;30.75;25.00;15.50
44933;PMS3003;30667;43.614;1.442;2023-02-15T05:29:02;24.00;22.80;14.00
44933;PMS3003;30667;43.614;1.442;2023-02-15T05:31:28;27.20;24.60;14.60
44933;PMS3003;30667;43.614;1.442;2023-02-15T05:33:53;22.25;21.00;13.25
44933;PMS3003;30667;43.614;1.442;2023-02-15T05:36:18;25.25;23.75;14.50
44933;PMS3003;30667;43.614;1.442;2023-02-15T05:38:44;52.25;45.00;26.25
44933;PMS3003;30667;43.614;1.442;2023-02-15T05:41:10;32.00;25.25;16.25
44933;PMS3003;30667;43.614;1.442;2023-02-15T05:43:36;26.20;23.60;15.00
44933;PMS3003;30667;43.614;1.442;2023-02-15T05:46:03;27.40;24.80;14.80
44933;PMS3003;30667;43.614;1.442;2023-02-15T05:48:29;28.00;25.60;15.20
44933;PMS3003;30667;43.614;1.442;2023-02-15T05:53:28;24.80;23.20;15.00
44933;PMS3003;30667;43.614;1.442;2023-02-15T05:55:55;39.60;37.60;25.00
44933;PMS3003;30667;43.614;1.442;2023-02-15T05:58:27;29.40;26.80;16.20
44933;PMS3003;30667;43.614;1.442;2023-02-15T06:00:55;25.40;24.40;17.80
44933;PMS3003;30667;43.614;1.442;2023-02-15T06:03:20;37.75;35.00;22.00
44933;PMS3003;30667;43.614;1.442;2023-02-15T06:05:46;36.00;29.00;21.00
44933;PMS3003;30667;43.614;1.442;2023-02-15T06:08:12;38.75;33.25;21.00
44933;PMS3003;30667;43.614;1.442;2023-02-15T06:10:37;34.50;32.75;23.50
44933;PMS3003;30667;43.614;1.442;2023-02-15T06:13:04;33.80;30.00;19.80
44933;PMS3003;30667;43.614;1.442;2023-02-15T06:15:30;34.50;31.50;22.00
44933;PMS3003;30667;43.614;1.442;2023-02-15T06:17:56;22.75;19.00;12.00
44933;PMS3003;30667;43.614;1.442;2023-02-15T06:20:21;19.75;19.00;11.50
44933;PMS3003;30667;43.614;1.442;2023-02-15T06:22:47;21.25;17.00;9.25
44933;PMS3003;30667;43.614;1.442;2023-02-15T06:25:12;20.00;19.00;13.00
44933;PMS3003;30667;43.614;1.442;2023-02-15T06:27:38;20.50;18.00;10.50
44933;PMS3003;30667;43.614;1.442;2023-02-15T06:30:07;16.20;15.00;8.80
44933;PMS3003;30667;43.614;1.442;2023-02-15T06:32:33;21.60;17.80;9.00
44933;PMS3003;30667;43.614;1.442;2023-02-15T06:34:58;17.75;16.00;10.50
44933;PMS3003;30667;43.614;1.442;2023-02-15T06:37:24;17.75;15.00;9.00
44933;PMS3003;30667;43.614;1.442;2023-02-15T06:39:49;20.25;19.00;9.00
44933;PMS3003;30667;43.614;1.442;2023-02-15T06:42:15;19.00;18.00;9.00
44933;PMS3003;30667;43.614;1.442;2023-02-15T06:44:40;18.00;17.25;9.00
44933;PMS3003;30667;43.614;1.442;2023-02-15T06:47:05;18.25;17.00;11.00
44933;PMS3003;30667;43.614;1.442;2023-02-15T06:49:31;18.25;15.00;8.25
44933;PMS3003;30667;43.614;1.442;2023-02-15T06:51:56;16.75;16.00;9.75
44933;PMS3003;30667;43.614;1.442;2023-02-15T06:54:22;20.00;16.50;9.25
44933;PMS3003;30667;43.614;1.442;2023-02-15T06:56:47;18.25;16.50;9.75
44933;PMS3003;30667;43.614;1.442;2023-02-15T06:59:12;16.50;15.75;9.00
44933;PMS3003;30667;43.614;1.442;2023-02-15T07:01:38;19.50;16.25;9.50
44933;PMS3003;30667;43.614;1.442;2023-02-15T07:04:03;19.00;17.00;10.50
44933;PMS3003;30667;43.614;1.442;2023-02-15T07:06:32;23.50;21.00;13.00
44933;PMS3003;30667;43.614;1.442;2023-02-15T07:08:58;18.60;16.60;10.20
44933;PMS3003;30667;43.614;1.442;2023-02-15T07:11:24;20.20;16.20;9.00
44933;PMS3003;30667;43.614;1.442;2023-02-15T07:14:08;17.00;16.00;9.80
44933;PMS3003;30667;43.614;1.442;2023-02-15T07:16:34;16.50;16.00;9.00
44933;PMS3003;30667;43.614;1.442;2023-02-15T07:18:59;14.25;13.25;7.00
44933;PMS3003;30667;43.614;1.442;2023-02-15T07:21:24;15.50;15.50;8.00
44933;PMS3003;30667;43.614;1.442;2023-02-15T07:23:50;17.25;17.00;9.00
44933;PMS3003;30667;43.614;1.442;2023-02-15T07:26:15;17.25;15.25;9.00
44933;PMS3003;30667;43.614;1.442;2023-02-15T07:28:41;20.50;17.75;10.00
44933;PMS3003;30667;43.614;1.442;2023-02-15T07:31:06;20.25;18.50;10.00
44933;PMS3003;30667;43.614;1.442;2023-02-15T07:33:32;19.25;17.00;10.00
44933;PMS3003;30667;43.614;1.442;2023-02-15T07:36:00;18.80;17.60;9.60
44933;PMS3003;30667;43.614;1.442;2023-02-15T07:38:35;16.80;16.80;10.20
44933;PMS3003;30667;43.614;1.442;2023-02-15T07:41:02;21.60;17.20;9.60
44933;PMS3003;30667;43.614;1.442;2023-02-15T07:43:33;18.40;15.80;9.80
44933;PMS3003;30667;43.614;1.442;2023-02-15T07:46:00;15.60;14.60;10.00
44933;PMS3003;30667;43.614;1.442;2023-02-15T07:48:27;18.60;15.80;10.00
44933;PMS3003;30667;43.614;1.442;2023-02-15T07:50:53;14.25;13.00;7.75
44933;PMS3003;30667;43.614;1.442;2023-02-15T07:53:19;20.50;17.25;9.50
44933;PMS3003;30667;43.614;1.442;2023-02-15T07:55:44;14.75;14.75;9.25
44933;PMS3003;30667;43.614;1.442;2023-02-15T07:58:10;17.50;15.75;9.00
44933;PMS3003;30667;43.614;1.442;2023-02-15T08:00:35;16.75;16.75;9.75
44933;PMS3003;30667;43.614;1.442;2023-02-15T08:03:19;18.40;16.40;9.80
44933;PMS3003;30667;43.614;1.442;2023-02-15T08:05:57;14.80;14.60;8.20
44933;PMS3003;30667;43.614;1.442;2023-02-15T08:08:23;16.80;15.80;9.00
44933;PMS3003;30667;43.614;1.442;2023-02-15T08:19:02;18.00;13.60;6.60
44933;PMS3003;30667;43.614;1.442;2023-02-15T08:22:04;13.60;13.00;8.00
44933;PMS3003;30667;43.614;1.442;2023-02-15T08:24:34;17.40;17.40;9.40
44933;PMS3003;30667;43.614;1.442;2023-02-15T08:27:02;14.80;14.00;7.00
44933;PMS3003;30667;43.614;1.442;2023-02-15T08:29:29;21.60;16.00;8.40
44933;PMS3003;30667;43.614;1.442;2023-02-15T08:31:56;15.40;15.40;9.20
44933;PMS3003;30667;43.614;1.442;2023-02-15T08:34:23;15.40;13.60;7.20
44933;PMS3003;30667;43.614;1.442;2023-02-15T08:36:49;17.25;14.75;9.00
44933;PMS3003;30667;43.614;1.442;2023-02-15T08:39:15;19.60;17.20;9.00
44933;PMS3003;30667;43.614;1.442;2023-02-15T08:41:42;14.60;11.80;6.00
44933;PMS3003;30667;43.614;1.442;2023-02-15T08:44:09;16.00;14.40;7.60
44933;PMS3003;30667;43.614;1.442;2023-02-15T08:46:39;15.00;14.00;7.00
44933;PMS3003;30667;43.614;1.442;2023-02-15T08:49:06;14.60;14.20;8.80
44933;PMS3003;30667;43.614;1.442;2023-02-15T08:51:33;13.80;13.20;9.40
44933;PMS3003;30667;43.614;1.442;2023-02-15T08:54:04;14.80;14.60;7.40
44933;PMS3003;30667;43.614;1.442;2023-02-15T08:56:33;14.40;13.00;6.40
44933;PMS3003;30667;43.614;1.442;2023-02-15T08:59:01;14.60;13.80;6.40
44933;PMS3003;30667;43.614;1.442;2023-02-15T09:01:27;15.60;14.80;8.60
44933;PMS3003;30667;43.614;1.442;2023-02-15T09:03:56;12.60;11.00;5.60
44933;PMS3003;30667;43.614;1.442;2023-02-15T09:06:23;16.40;14.40;7.60
44933;PMS3003;30667;43.614;1.442;2023-02-15T09:08:50;14.20;11.40;6.80
44933;PMS3003;30667;43.614;1.442;2023-02-15T09:11:17;13.20;13.00;7.80
44933;PMS3003;30667;43.614;1.442;2023-02-15T09:13:54;12.00;11.00;6.00
44933;PMS3003;30667;43.614;1.442;2023-02-15T09:16:31;10.00;10.00;5.60
44933;PMS3003;30667;43.614;1.442;2023-02-15T09:18:58;13.40;12.00;7.00
44933;PMS3003;30667;43.614;1.442;2023-02-15T09:21:26;15.00;12.40;6.60
44933;PMS3003;30667;43.614;1.442;2023-02-15T09:23:54;15.75;14.75;8.75
44933;PMS3003;30667;43.614;1.442;2023-02-15T09:26:22;18.60;16.40;9.00
44933;PMS3003;30667;43.614;1.442;2023-02-15T09:28:52;11.20;9.40;5.00
44933;PMS3003;30667;43.614;1.442;2023-02-15T09:31:21;15.00;15.00;8.60
44933;PMS3003;30667;43.614;1.442;2023-02-15T09:33:48;14.60;14.60;9.00
44933;PMS3003;30667;43.614;1.442;2023-02-15T09:36:24;13.60;13.20;7.40
44933;PMS3003;30667;43.614;1.442;2023-02-15T09:38:59;15.40;13.20;7.80
44933;PMS3003;30667;43.614;1.442;2023-02-15T09:47:28;13.00;13.00;8.00
44933;PMS3003;30667;43.614;1.442;2023-02-15T09:53:42;13.80;11.80;7.00
44933;PMS3003;30667;43.614;1.442;2023-02-15T10:15:04;13.00;12.80;7.20
44933;PMS3003;30667;43.614;1.442;2023-02-15T10:26:02;15.20;14.60;8.00
44933;PMS3003;30667;43.614;1.442;2023-02-15T10:28:59;15.40;14.80;8.00
44933;PMS3003;30667;43.614;1.442;2023-02-15T10:31:34;11.60;11.00;6.60
44933;PMS3003;30667;43.614;1.442;2023-02-15T10:42:04;11.20;11.00;6.60
44933;PMS3003;30667;43.614;1.442;2023-02-15T10:45:06;11.60;11.20;7.00
44933;PMS3003;30667;43.614;1.442;2023-02-15T10:59:26;12.00;12.00;8.00
44933;PMS3003;30667;43.614;1.442;2023-02-15T11:08:07;11.00;10.60;5.60
44933;PMS3003;30667;43.614;1.442;2023-02-15T11:10:37;8.40;8.00;4.20
44933;PMS3003;30667;43.614;1.442;2023-02-15T11:13:14;7.60;7.00;4.00
44933;PMS3003;30667;43.614;1.442;2023-02-15T11:18:13;14.20;12.00;7.00
44933;PMS3003;30667;43.614;1.442;2023-02-15T11:23:35;12.00;12.00;8.00
44933;PMS3003;30667;43.614;1.442;2023-02-15T11:26:08;11.20;9.40;6.00
44933;PMS3003;30667;43.614;1.442;2023-02-15T11:28:41;11.20;10.80;6.00
44933;PMS3003;30667;43.614;1.442;2023-02-15T11:31:13;16.60;13.60;7.00
44933;PMS3003;30667;43.614;1.442;2023-02-15T11:33:43;12.80;12.60;7.60
44933;PMS3003;30667;43.614;1.442;2023-02-15T11:36:18;15.00;12.00;6.40
44933;PMS3003;30667;43.614;1.442;2023-02-15T11:38:49;13.40;11.20;6.40
44933;PMS3003;30667;43.614;1.442;2023-02-15T11:41:22;13.20;12.60;8.00
44933;PMS3003;30667;43.614;1.442;2023-02-15T11:46:32;12.80;12.00;7.80
44933;PMS3003;30667;43.614;1.442;2023-02-15T11:48:57;11.00;11.00;6.75
44933;PMS3003;30667;43.614;1.442;2023-02-15T11:51:23;13.25;13.00;8.00
44933;PMS3003;30667;43.614;1.442;2023-02-15T11:53:52;12.40;12.20;6.80
44933;PMS3003;30667;43.614;1.442;2023-02-15T11:56:21;14.25;13.25;8.00
44933;PMS3003;30667;43.614;1.442;2023-02-15T11:58:51;14.60;13.00;7.20
44933;PMS3003;30667;43.614;1.442;2023-02-15T12:04:10;12.20;11.20;6.00
44933;PMS3003;30667;43.614;1.442;2023-02-15T12:06:49;11.60;10.60;6.00
44933;PMS3003;30667;43.614;1.442;2023-02-15T12:12:23;11.00;10.60;5.60
44933;PMS3003;30667;43.614;1.442;2023-02-15T12:14:57;15.20;13.80;6.80
44933;PMS3003;30667;43.614;1.442;2023-02-15T12:22:49;12.50;10.75;7.00
44933;PMS3003;30667;43.614;1.442;2023-02-15T12:25:42;13.40;11.80;6.00
44933;PMS3003;30667;43.614;1.442;2023-02-15T12:30:44;12.00;10.80;7.00
44933;PMS3003;30667;43.614;1.442;2023-02-15T12:36:09;12.40;10.20;6.00
44933;PMS3003;30667;43.614;1.442;2023-02-15T12:38:36;10.20;8.60;5.40
44933;PMS3003;30667;43.614;1.442;2023-02-15T12:41:04;11.20;9.40;5.20
44933;PMS3003;30667;43.614;1.442;2023-02-15T12:43:46;12.40;11.00;5.20
44933;PMS3003;30667;43.614;1.442;2023-02-15T12:51:50;8.40;8.40;4.60
44933;PMS3003;30667;43.614;1.442;2023-02-15T12:59:51;8.80;7.40;3.20
44933;PMS3003;30667;43.614;1.442;2023-02-15T13:02:20;10.60;9.00;5.00
44933;PMS3003;30667;43.614;1.442;2023-02-15T13:04:48;10.20;8.40;4.00
44933;PMS3003;30667;43.614;1.442;2023-02-15T13:07:15;10.80;10.80;7.00
44933;PMS3003;30667;43.614;1.442;2023-02-15T13:09:41;9.00;9.00;6.00
44933;PMS3003;30667;43.614;1.442;2023-02-15T13:14:48;9.80;8.60;4.20
44933;PMS3003;30667;43.614;1.442;2023-02-15T13:17:16;12.00;9.40;6.00
44933;PMS3003;30667;43.614;1.442;2023-02-15T13:19:47;9.00;9.00;4.00
44933;PMS3003;30667;43.614;1.442;2023-02-15T13:22:18;8.40;7.80;4.20
44933;PMS3003;30667;43.614;1.442;2023-02-15T13:25:17;11.80;11.20;6.00
44933;PMS3003;30667;43.614;1.442;2023-02-15T13:28:00;12.40;11.40;6.20
44933;PMS3003;30667;43.614;1.442;2023-02-15T13:30:30;10.20;7.60;3.40
44933;PMS3003;30667;43.614;1.442;2023-02-15T13:33:03;10.60;10.00;6.80
44933;PMS3003;30667;43.614;1.442;2023-02-15T13:35:36;9.00;8.40;4.00
44933;PMS3003;30667;43.614;1.442;2023-02-15T13:41:06;11.60;10.40;4.60
44933;PMS3003;30667;43.614;1.442;2023-02-15T13:51:41;11.60;10.60;6.00
44933;PMS3003;30667;43.614;1.442;2023-02-15T13:56:56;11.40;11.20;6.40
44933;PMS3003;30667;43.614;1.442;2023-02-15T14:00:38;9.80;9.20;4.80
44933;PMS3003;30667;43.614;1.442;2023-02-15T14:16:24;11.40;9.00;5.60
44933;PMS3003;30667;43.614;1.442;2023-02-15T14:21:59;12.00;9.80;6.00
44933;PMS3003;30667;43.614;1.442;2023-02-15T14:24:49;11.00;10.00;4.00
44933;PMS3003;30667;43.614;1.442;2023-02-15T14:27:37;7.60;7.40;3.80
44933;PMS3003;30667;43.614;1.442;2023-02-15T14:30:37;8.00;8.00;3.20
44933;PMS3003;30667;43.614;1.442;2023-02-15T14:33:06;8.60;8.00;4.00
44933;PMS3003;30667;43.614;1.442;2023-02-15T14:35:34;10.80;9.00;6.00
44933;PMS3003;30667;43.614;1.442;2023-02-15T14:48:45;8.60;8.40;3.20
44933;PMS3003;30667;43.614;1.442;2023-02-15T14:56:47;9.40;8.60;4.40
44933;PMS3003;30667;43.614;1.442;2023-02-15T15:02:07;8.40;8.00;4.00
44933;PMS3003;30667;43.614;1.442;2023-02-15T15:05:01;8.80;8.60;4.80
44933;PMS3003;30667;43.614;1.442;2023-02-15T15:07:47;8.20;8.00;3.00
44933;PMS3003;30667;43.614;1.442;2023-02-15T15:12:44;7.00;7.00;3.75
44933;PMS3003;30667;43.614;1.442;2023-02-15T15:17:52;8.40;8.40;4.00
44933;PMS3003;30667;43.614;1.442;2023-02-15T15:23:33;9.40;8.00;4.00
44933;PMS3003;30667;43.614;1.442;2023-02-15T15:25:41;8.00;8.00;4.00
44933;PMS3003;30667;43.614;1.442;2023-02-15T15:36:53;8.00;7.60;4.00
44933;PMS3003;30667;43.614;1.442;2023-02-15T15:50:46;11.20;9.20;6.00
44933;PMS3003;30667;43.614;1.442;2023-02-15T15:53:18;8.60;8.40;4.00
44933;PMS3003;30667;43.614;1.442;2023-02-15T15:55:47;10.40;9.40;4.80
44933;PMS3003;30667;43.614;1.442;2023-02-15T15:58:16;13.00;9.00;6.00
44933;PMS3003;30667;43.614;1.442;2023-02-15T16:03:13;14.20;12.00;7.00
44933;PMS3003;30667;43.614;1.442;2023-02-15T16:05:41;9.80;8.80;4.20
44933;PMS3003;30667;43.614;1.442;2023-02-15T16:08:06;12.50;11.75;6.25
44933;PMS3003;30667;43.614;1.442;2023-02-15T16:10:32;8.50;7.50;3.25
44933;PMS3003;30667;43.614;1.442;2023-02-15T16:13:00;7.40;7.40;4.00
44933;PMS3003;30667;43.614;1.442;2023-02-15T16:15:46;7.40;7.40;4.00
44933;PMS3003;30667;43.614;1.442;2023-02-15T16:18:18;11.20;10.00;6.00
44933;PMS3003;30667;43.614;1.442;2023-02-15T16:20:51;12.40;12.00;7.00
44933;PMS3003;30667;43.614;1.442;2023-02-15T16:29:12;12.20;12.00;6.40
44933;PMS3003;30667;43.614;1.442;2023-02-15T16:31:43;13.20;13.00;7.00
44933;PMS3003;30667;43.614;1.442;2023-02-15T16:34:22;14.00;11.20;7.40
44933;PMS3003;30667;43.614;1.442;2023-02-15T16:36:48;14.50;13.25;8.25
44933;PMS3003;30667;43.614;1.442;2023-02-15T16:39:17;13.25;12.25;7.00
44933;PMS3003;30667;43.614;1.442;2023-02-15T16:41:44;16.00;13.20;8.00
44933;PMS3003;30667;43.614;1.442;2023-02-15T16:44:18;14.00;13.00;7.60
44933;PMS3003;30667;43.614;1.442;2023-02-15T16:46:46;13.60;12.00;7.00
44933;PMS3003;30667;43.614;1.442;2023-02-15T16:49:21;18.00;15.40;8.00
44933;PMS3003;30667;43.614;1.442;2023-02-15T16:52:00;15.20;13.80;8.00
44933;PMS3003;30667;43.614;1.442;2023-02-15T16:54:28;15.60;14.60;8.00
44933;PMS3003;30667;43.614;1.442;2023-02-15T16:56:56;14.20;13.60;8.00
44933;PMS3003;30667;43.614;1.442;2023-02-15T17:02:12;16.20;15.60;8.00
44933;PMS3003;30667;43.614;1.442;2023-02-15T17:04:41;14.00;13.00;8.00
44933;PMS3003;30667;43.614;1.442;2023-02-15T17:07:15;14.00;14.00;8.00
44933;PMS3003;30667;43.614;1.442;2023-02-15T17:09:52;17.20;15.80;8.00
44933;PMS3003;30667;43.614;1.442;2023-02-15T17:15:46;18.00;15.60;10.20
44933;PMS3003;30667;43.614;1.442;2023-02-15T17:18:23;16.40;15.20;9.80
44933;PMS3003;30667;43.614;1.442;2023-02-15T17:20:51;13.00;13.00;7.60
44933;PMS3003;30667;43.614;1.442;2023-02-15T17:23:30;13.20;13.20;8.20
44933;PMS3003;30667;43.614;1.442;2023-02-15T17:25:58;13.20;13.20;7.40
44933;PMS3003;30667;43.614;1.442;2023-02-15T17:28:29;17.40;16.00;9.40
44933;PMS3003;30667;43.614;1.442;2023-02-15T17:30:56;13.80;13.00;8.00
44933;PMS3003;30667;43.614;1.442;2023-02-15T17:33:41;18.00;18.00;12.00
44933;PMS3003;30667;43.614;1.442;2023-02-15T17:36:20;21.20;17.60;11.40
44933;PMS3003;30667;43.614;1.442;2023-02-15T17:41:22;20.20;17.20;11.00
44933;PMS3003;30667;43.614;1.442;2023-02-15T17:43:50;18.00;16.00;9.00
44933;PMS3003;30667;43.614;1.442;2023-02-15T17:46:16;17.25;16.00;11.00
44933;PMS3003;30667;43.614;1.442;2023-02-15T17:48:45;21.80;17.20;11.00
44933;PMS3003;30667;43.614;1.442;2023-02-15T17:51:12;16.60;14.60;10.60
44933;PMS3003;30667;43.614;1.442;2023-02-15T17:53:39;18.80;18.20;11.80
44933;PMS3003;30667;43.614;1.442;2023-02-15T17:56:05;15.80;15.00;9.60
44933;PMS3003;30667;43.614;1.442;2023-02-15T17:58:36;18.60;17.60;10.60
44933;PMS3003;30667;43.614;1.442;2023-02-15T18:01:04;18.75;17.00;11.00
44933;PMS3003;30667;43.614;1.442;2023-02-15T18:03:51;18.00;16.00;11.00
44933;PMS3003;30667;43.614;1.442;2023-02-15T18:06:36;16.80;16.40;10.40
44933;PMS3003;30667;43.614;1.442;2023-02-15T18:09:22;22.40;20.80;12.20
44933;PMS3003;30667;43.614;1.442;2023-02-15T18:12:23;16.20;15.40;8.00
44933;PMS3003;30667;43.614;1.442;2023-02-15T18:14:52;22.20;19.20;12.00
44933;PMS3003;30667;43.614;1.442;2023-02-15T18:17:18;18.00;17.40;10.60